sensor_id;sensor_type;location;lat;lon;timestamp;P1;durP1;ratioP1;P2;durP2;ratioP2
10529;SDS011;5313;48.834;9.228;2024-02-26T00:02:17;1.83;;;1.50;;
10529;SDS011;5313;48.834;9.228;2024-02-26T00:04:43;1.73;;;1.27;;
10529;SDS011;5313;48.834;9.228;2024-02-26T00:07:08;3.10;;;1.67;;
10529;SDS011;5313;48.834;9.228;2024-02-26T00:09:34;2.40;;;1.70;;
10529;SDS011;5313;48.834;9.228;2024-02-26T00:12:04;1.90;;;1.50;;
10529;SDS011;5313;48.834;9.228;2024-02-26T00:14:30;2.40;;;1.50;;
10529;SDS011;5313;48.834;9.228;2024-02-26T00:16:55;3.00;;;1.50;;
10529;SDS011;5313;48.834;9.228;2024-02-26T00:19:21;3.90;;;1.67;;
10529;SDS011;5313;48.834;9.228;2024-02-26T00:21:47;1.77;;;1.40;;
10529;SDS011;5313;48.834;9.228;2024-02-26T00:24:12;2.97;;;1.50;;
10529;SDS011;5313;48.834;9.228;2024-02-26T00:26:38;2.20;;;1.27;;
10529;SDS011;5313;48.834;9.228;2024-02-26T00:29:04;1.70;;;1.40;;
10529;SDS011;5313;48.834;9.228;2024-02-26T00:31:29;3.23;;;1.40;;
10529;SDS011;5313;48.834;9.228;2024-02-26T00:33:55;1.27;;;1.13;;
10529;SDS011;5313;48.834;9.228;2024-02-26T00:36:20;2.73;;;1.60;;
10529;SDS011;5313;48.834;9.228;2024-02-26T00:38:46;2.37;;;1.50;;
10529;SDS011;5313;48.834;9.228;2024-02-26T00:41:15;3.00;;;1.70;;
10529;SDS011;5313;48.834;9.228;2024-02-26T00:43:41;2.23;;;1.53;;
10529;SDS011;5313;48.834;9.228;2024-02-26T00:46:07;1.93;;;1.30;;
10529;SDS011;5313;48.834;9.228;2024-02-26T00:48:33;2.47;;;1.50;;
10529;SDS011;5313;48.834;9.228;2024-02-26T00:50:58;4.23;;;1.60;;
10529;SDS011;5313;48.834;9.228;2024-02-26T00:53:24;1.90;;;1.60;;
10529;SDS011;5313;48.834;9.228;2024-02-26T00:55:50;2.87;;;1.50;;
10529;SDS011;5313;48.834;9.228;2024-02-26T00:58:16;1.90;;;1.50;;
10529;SDS011;5313;48.834;9.228;2024-02-26T01:00:41;1.57;;;1.40;;
10529;SDS011;5313;48.834;9.228;2024-02-26T01:03:08;1.87;;;1.67;;
10529;SDS011;5313;48.834;9.228;2024-02-26T01:05:35;2.07;;;1.40;;
10529;SDS011;5313;48.834;9.228;2024-02-26T01:08:01;1.80;;;1.30;;
10529;SDS011;5313;48.834;9.228;2024-02-26T01:10:27;3.83;;;1.73;;
10529;SDS011;5313;48.834;9.228;2024-02-26T01:12:53;1.90;;;1.60;;
10529;SDS011;5313;48.834;9.228;2024-02-26T01:15:18;2.20;;;1.67;;
10529;SDS011;5313;48.834;9.228;2024-02-26T01:17:47;2.33;;;1.40;;
10529;SDS011;5313;48.834;9.228;2024-02-26T01:20:12;3.57;;;1.70;;
10529;SDS011;5313;48.834;9.228;2024-02-26T01:22:38;1.93;;;1.50;;
10529;SDS011;5313;48.834;9.228;2024-02-26T01:25:05;2.00;;;1.50;;
10529;SDS011;5313;48.834;9.228;2024-02-26T01:27:32;2.73;;;1.60;;
10529;SDS011;5313;48.834;9.228;2024-02-26T01:29:57;2.87;;;1.13;;
10529;SDS011;5313;48.834;9.228;2024-02-26T01:32:23;1.63;;;1.40;;
10529;SDS011;5313;48.834;9.228;2024-02-26T01:34:48;3.77;;;1.57;;
10529;SDS011;5313;48.834;9.228;2024-02-26T01:37:14;2.03;;;1.33;;
10529;SDS011;5313;48.834;9.228;2024-02-26T01:39:39;3.33;;;1.60;;
10529;SDS011;5313;48.834;9.228;2024-02-26T01:42:06;3.57;;;1.50;;
10529;SDS011;5313;48.834;9.228;2024-02-26T01:44:32;4.03;;;1.77;;
10529;SDS011;5313;48.834;9.228;2024-02-26T01:46:58;3.07;;;1.77;;
10529;SDS011;5313;48.834;9.228;2024-02-26T01:49:26;2.00;;;1.30;;
10529;SDS011;5313;48.834;9.228;2024-02-26T01:51:52;3.47;;;1.60;;
10529;SDS011;5313;48.834;9.228;2024-02-26T01:54:18;1.80;;;1.50;;
10529;SDS011;5313;48.834;9.228;2024-02-26T01:56:43;1.90;;;1.50;;
10529;SDS011;5313;48.834;9.228;2024-02-26T01:59:09;3.10;;;1.60;;
10529;SDS011;5313;48.834;9.228;2024-02-26T02:01:35;1.97;;;1.60;;
10529;SDS011;5313;48.834;9.228;2024-02-26T02:04:00;1.73;;;1.27;;
10529;SDS011;5313;48.834;9.228;2024-02-26T02:06:26;5.20;;;1.83;;
10529;SDS011;5313;48.834;9.228;2024-02-26T02:08:55;2.93;;;1.70;;
10529;SDS011;5313;48.834;9.228;2024-02-26T02:11:21;4.00;;;1.87;;
10529;SDS011;5313;48.834;9.228;2024-02-26T02:13:46;2.33;;;1.73;;
10529;SDS011;5313;48.834;9.228;2024-02-26T02:16:12;4.37;;;1.83;;
10529;SDS011;5313;48.834;9.228;2024-02-26T02:18:38;2.03;;;1.50;;
10529;SDS011;5313;48.834;9.228;2024-02-26T02:21:04;3.20;;;1.77;;
10529;SDS011;5313;48.834;9.228;2024-02-26T02:23:30;2.00;;;1.67;;
10529;SDS011;5313;48.834;9.228;2024-02-26T02:25:56;2.50;;;1.70;;
10529;SDS011;5313;48.834;9.228;2024-02-26T02:28:23;3.07;;;1.80;;
10529;SDS011;5313;48.834;9.228;2024-02-26T02:30:51;2.50;;;1.60;;
10529;SDS011;5313;48.834;9.228;2024-02-26T02:33:17;2.60;;;1.50;;
10529;SDS011;5313;48.834;9.228;2024-02-26T02:35:42;2.20;;;1.63;;
10529;SDS011;5313;48.834;9.228;2024-02-26T02:38:08;2.53;;;1.50;;
10529;SDS011;5313;48.834;9.228;2024-02-26T02:40:34;2.53;;;1.53;;
10529;SDS011;5313;48.834;9.228;2024-02-26T02:42:59;2.50;;;1.60;;
10529;SDS011;5313;48.834;9.228;2024-02-26T02:45:27;2.37;;;1.70;;
10529;SDS011;5313;48.834;9.228;2024-02-26T02:47:53;2.23;;;1.70;;
10529;SDS011;5313;48.834;9.228;2024-02-26T02:50:18;2.10;;;1.60;;
10529;SDS011;5313;48.834;9.228;2024-02-26T02:52:44;2.63;;;1.50;;
10529;SDS011;5313;48.834;9.228;2024-02-26T02:55:09;2.43;;;1.43;;
10529;SDS011;5313;48.834;9.228;2024-02-26T02:57:35;2.53;;;1.90;;
10529;SDS011;5313;48.834;9.228;2024-02-26T03:00:07;1.80;;;1.40;;
10529;SDS011;5313;48.834;9.228;2024-02-26T03:02:33;2.30;;;1.60;;
10529;SDS011;5313;48.834;9.228;2024-02-26T03:05:00;2.40;;;1.80;;
10529;SDS011;5313;48.834;9.228;2024-02-26T03:07:27;2.80;;;1.60;;
10529;SDS011;5313;48.834;9.228;2024-02-26T03:09:52;2.50;;;1.57;;
10529;SDS011;5313;48.834;9.228;2024-02-26T03:12:18;3.03;;;1.53;;
10529;SDS011;5313;48.834;9.228;2024-02-26T03:14:43;1.97;;;1.67;;
10529;SDS011;5313;48.834;9.228;2024-02-26T03:17:09;3.33;;;2.37;;
10529;SDS011;5313;48.834;9.228;2024-02-26T03:19:34;1.90;;;1.60;;
10529;SDS011;5313;48.834;9.228;2024-02-26T03:22:00;1.73;;;1.37;;
10529;SDS011;5313;48.834;9.228;2024-02-26T03:24:25;2.37;;;1.60;;
10529;SDS011;5313;48.834;9.228;2024-02-26T03:26:51;1.90;;;1.57;;
10529;SDS011;5313;48.834;9.228;2024-02-26T03:29:17;4.80;;;1.80;;
10529;SDS011;5313;48.834;9.228;2024-02-26T03:31:42;1.97;;;1.70;;
10529;SDS011;5313;48.834;9.228;2024-02-26T03:34:08;2.30;;;1.80;;
10529;SDS011;5313;48.834;9.228;2024-02-26T03:36:33;4.30;;;1.60;;
10529;SDS011;5313;48.834;9.228;2024-02-26T03:38:59;2.10;;;1.40;;
10529;SDS011;5313;48.834;9.228;2024-02-26T03:41:24;2.73;;;1.70;;
10529;SDS011;5313;48.834;9.228;2024-02-26T03:43:50;2.57;;;1.70;;
10529;SDS011;5313;48.834;9.228;2024-02-26T03:46:15;2.20;;;1.70;;
10529;SDS011;5313;48.834;9.228;2024-02-26T03:48:41;2.13;;;1.60;;
10529;SDS011;5313;48.834;9.228;2024-02-26T03:51:08;3.27;;;2.00;;
10529;SDS011;5313;48.834;9.228;2024-02-26T03:53:34;2.30;;;1.80;;
10529;SDS011;5313;48.834;9.228;2024-02-26T03:56:03;3.60;;;1.80;;
10529;SDS011;5313;48.834;9.228;2024-02-26T03:58:29;2.43;;;1.80;;
10529;SDS011;5313;48.834;9.228;2024-02-26T04:00:55;2.97;;;1.70;;
10529;SDS011;5313;48.834;9.228;2024-02-26T04:03:21;2.10;;;1.70;;
10529;SDS011;5313;48.834;9.228;2024-02-26T04:05:46;2.73;;;1.70;;
10529;SDS011;5313;48.834;9.228;2024-02-26T04:08:12;2.40;;;1.70;;
10529;SDS011;5313;48.834;9.228;2024-02-26T04:10:37;1.80;;;1.30;;
10529;SDS011;5313;48.834;9.228;2024-02-26T04:13:04;2.07;;;1.43;;
10529;SDS011;5313;48.834;9.228;2024-02-26T04:15:30;1.83;;;1.33;;
10529;SDS011;5313;48.834;9.228;2024-02-26T04:17:56;2.30;;;1.53;;
10529;SDS011;5313;48.834;9.228;2024-02-26T04:20:22;1.83;;;1.43;;
10529;SDS011;5313;48.834;9.228;2024-02-26T04:22:47;2.00;;;1.37;;
10529;SDS011;5313;48.834;9.228;2024-02-26T04:25:13;1.87;;;1.60;;
10529;SDS011;5313;48.834;9.228;2024-02-26T04:27:39;2.40;;;1.50;;
10529;SDS011;5313;48.834;9.228;2024-02-26T04:30:05;2.37;;;1.43;;
10529;SDS011;5313;48.834;9.228;2024-02-26T04:32:31;2.63;;;1.63;;
10529;SDS011;5313;48.834;9.228;2024-02-26T04:34:57;2.10;;;1.77;;
10529;SDS011;5313;48.834;9.228;2024-02-26T04:37:23;2.90;;;2.00;;
10529;SDS011;5313;48.834;9.228;2024-02-26T04:39:48;2.33;;;1.87;;
10529;SDS011;5313;48.834;9.228;2024-02-26T04:42:14;2.20;;;1.60;;
10529;SDS011;5313;48.834;9.228;2024-02-26T04:44:39;1.70;;;1.47;;
10529;SDS011;5313;48.834;9.228;2024-02-26T04:47:05;3.83;;;1.87;;
10529;SDS011;5313;48.834;9.228;2024-02-26T04:49:32;2.27;;;1.77;;
10529;SDS011;5313;48.834;9.228;2024-02-26T04:51:58;4.47;;;1.80;;
10529;SDS011;5313;48.834;9.228;2024-02-26T04:54:24;2.20;;;1.70;;
10529;SDS011;5313;48.834;9.228;2024-02-26T04:56:49;1.97;;;1.70;;
10529;SDS011;5313;48.834;9.228;2024-02-26T04:59:15;2.47;;;1.53;;
10529;SDS011;5313;48.834;9.228;2024-02-26T05:01:40;3.43;;;1.87;;
10529;SDS011;5313;48.834;9.228;2024-02-26T05:04:06;3.63;;;1.77;;
10529;SDS011;5313;48.834;9.228;2024-02-26T05:06:32;2.10;;;1.60;;
10529;SDS011;5313;48.834;9.228;2024-02-26T05:08:57;3.20;;;1.80;;
10529;SDS011;5313;48.834;9.228;2024-02-26T05:11:23;2.60;;;1.50;;
10529;SDS011;5313;48.834;9.228;2024-02-26T05:13:48;2.00;;;1.50;;
10529;SDS011;5313;48.834;9.228;2024-02-26T05:16:14;2.57;;;1.70;;
10529;SDS011;5313;48.834;9.228;2024-02-26T05:18:39;2.60;;;1.70;;
10529;SDS011;5313;48.834;9.228;2024-02-26T05:21:05;2.50;;;1.40;;
10529;SDS011;5313;48.834;9.228;2024-02-26T05:23:30;4.07;;;1.80;;
10529;SDS011;5313;48.834;9.228;2024-02-26T05:25:56;3.17;;;2.60;;
10529;SDS011;5313;48.834;9.228;2024-02-26T05:28:22;2.37;;;1.70;;
10529;SDS011;5313;48.834;9.228;2024-02-26T05:30:47;5.60;;;1.90;;
10529;SDS011;5313;48.834;9.228;2024-02-26T05:33:13;2.13;;;1.90;;
10529;SDS011;5313;48.834;9.228;2024-02-26T05:35:38;2.93;;;1.60;;
10529;SDS011;5313;48.834;9.228;2024-02-26T05:38:05;3.07;;;1.70;;
10529;SDS011;5313;48.834;9.228;2024-02-26T05:40:31;2.67;;;1.80;;
10529;SDS011;5313;48.834;9.228;2024-02-26T05:42:56;13.53;;;2.00;;
10529;SDS011;5313;48.834;9.228;2024-02-26T05:45:22;2.43;;;1.50;;
10529;SDS011;5313;48.834;9.228;2024-02-26T05:47:47;2.33;;;1.50;;
10529;SDS011;5313;48.834;9.228;2024-02-26T05:50:14;1.77;;;1.40;;
10529;SDS011;5313;48.834;9.228;2024-02-26T05:52:40;2.00;;;1.60;;
10529;SDS011;5313;48.834;9.228;2024-02-26T05:55:06;2.03;;;1.77;;
10529;SDS011;5313;48.834;9.228;2024-02-26T05:57:32;2.07;;;1.53;;
10529;SDS011;5313;48.834;9.228;2024-02-26T05:59:59;6.63;;;1.93;;
10529;SDS011;5313;48.834;9.228;2024-02-26T06:02:32;3.97;;;1.67;;
10529;SDS011;5313;48.834;9.228;2024-02-26T06:04:57;2.60;;;1.70;;
10529;SDS011;5313;48.834;9.228;2024-02-26T06:07:24;2.90;;;1.93;;
10529;SDS011;5313;48.834;9.228;2024-02-26T06:09:49;5.77;;;1.90;;
10529;SDS011;5313;48.834;9.228;2024-02-26T06:12:15;2.03;;;1.67;;
10529;SDS011;5313;48.834;9.228;2024-02-26T06:14:44;3.47;;;2.37;;
10529;SDS011;5313;48.834;9.228;2024-02-26T06:17:09;2.63;;;2.10;;
10529;SDS011;5313;48.834;9.228;2024-02-26T06:19:35;2.70;;;1.90;;
10529;SDS011;5313;48.834;9.228;2024-02-26T06:22:00;2.80;;;2.07;;
10529;SDS011;5313;48.834;9.228;2024-02-26T06:24:26;2.60;;;1.87;;
10529;SDS011;5313;48.834;9.228;2024-02-26T06:26:51;4.00;;;2.20;;
10529;SDS011;5313;48.834;9.228;2024-02-26T06:29:17;2.80;;;1.87;;
10529;SDS011;5313;48.834;9.228;2024-02-26T06:31:42;2.70;;;2.20;;
10529;SDS011;5313;48.834;9.228;2024-02-26T06:34:08;4.53;;;2.17;;
10529;SDS011;5313;48.834;9.228;2024-02-26T06:36:34;3.57;;;2.23;;
10529;SDS011;5313;48.834;9.228;2024-02-26T06:39:00;3.10;;;2.27;;
10529;SDS011;5313;48.834;9.228;2024-02-26T06:41:25;4.93;;;2.23;;
10529;SDS011;5313;48.834;9.228;2024-02-26T06:43:55;2.83;;;2.17;;
10529;SDS011;5313;48.834;9.228;2024-02-26T06:46:22;4.27;;;2.33;;
10529;SDS011;5313;48.834;9.228;2024-02-26T06:48:48;3.63;;;2.30;;
10529;SDS011;5313;48.834;9.228;2024-02-26T06:51:14;2.87;;;2.27;;
10529;SDS011;5313;48.834;9.228;2024-02-26T06:53:39;4.33;;;2.60;;
10529;SDS011;5313;48.834;9.228;2024-02-26T06:56:05;2.30;;;2.10;;
10529;SDS011;5313;48.834;9.228;2024-02-26T06:58:30;3.90;;;2.33;;
10529;SDS011;5313;48.834;9.228;2024-02-26T07:00:56;3.63;;;2.53;;
10529;SDS011;5313;48.834;9.228;2024-02-26T07:03:21;3.10;;;2.20;;
10529;SDS011;5313;48.834;9.228;2024-02-26T07:05:50;2.50;;;2.07;;
10529;SDS011;5313;48.834;9.228;2024-02-26T07:08:16;3.03;;;2.30;;
10529;SDS011;5313;48.834;9.228;2024-02-26T07:10:42;3.57;;;2.63;;
10529;SDS011;5313;48.834;9.228;2024-02-26T07:13:08;4.30;;;2.60;;
10529;SDS011;5313;48.834;9.228;2024-02-26T07:15:34;4.60;;;2.50;;
10529;SDS011;5313;48.834;9.228;2024-02-26T07:17:59;3.97;;;2.83;;
10529;SDS011;5313;48.834;9.228;2024-02-26T07:20:28;4.47;;;2.43;;
10529;SDS011;5313;48.834;9.228;2024-02-26T07:22:55;4.00;;;2.27;;
10529;SDS011;5313;48.834;9.228;2024-02-26T07:25:20;3.47;;;2.43;;
10529;SDS011;5313;48.834;9.228;2024-02-26T07:27:46;3.30;;;2.53;;
10529;SDS011;5313;48.834;9.228;2024-02-26T07:30:11;3.87;;;2.67;;
10529;SDS011;5313;48.834;9.228;2024-02-26T07:32:37;3.47;;;2.77;;
10529;SDS011;5313;48.834;9.228;2024-02-26T07:35:03;4.93;;;2.90;;
10529;SDS011;5313;48.834;9.228;2024-02-26T07:37:30;4.17;;;2.67;;
10529;SDS011;5313;48.834;9.228;2024-02-26T07:39:55;4.53;;;2.60;;
10529;SDS011;5313;48.834;9.228;2024-02-26T07:42:21;3.80;;;2.63;;
10529;SDS011;5313;48.834;9.228;2024-02-26T07:44:47;4.47;;;3.00;;
10529;SDS011;5313;48.834;9.228;2024-02-26T07:47:12;3.97;;;2.60;;
10529;SDS011;5313;48.834;9.228;2024-02-26T07:49:38;5.37;;;2.70;;
10529;SDS011;5313;48.834;9.228;2024-02-26T07:52:05;3.37;;;2.80;;
10529;SDS011;5313;48.834;9.228;2024-02-26T07:54:30;3.67;;;3.07;;
10529;SDS011;5313;48.834;9.228;2024-02-26T07:56:56;4.67;;;3.00;;
10529;SDS011;5313;48.834;9.228;2024-02-26T07:59:21;3.90;;;2.90;;
10529;SDS011;5313;48.834;9.228;2024-02-26T08:01:53;3.90;;;2.73;;
10529;SDS011;5313;48.834;9.228;2024-02-26T08:04:18;3.97;;;2.80;;
10529;SDS011;5313;48.834;9.228;2024-02-26T08:06:44;7.63;;;2.80;;
10529;SDS011;5313;48.834;9.228;2024-02-26T08:09:09;5.27;;;2.90;;
10529;SDS011;5313;48.834;9.228;2024-02-26T08:11:35;4.17;;;2.90;;
10529;SDS011;5313;48.834;9.228;2024-02-26T08:14:00;5.37;;;2.97;;
10529;SDS011;5313;48.834;9.228;2024-02-26T08:16:26;4.97;;;2.70;;
10529;SDS011;5313;48.834;9.228;2024-02-26T08:18:52;6.63;;;3.10;;
10529;SDS011;5313;48.834;9.228;2024-02-26T08:21:17;5.83;;;2.90;;
10529;SDS011;5313;48.834;9.228;2024-02-26T08:23:43;6.73;;;3.30;;
10529;SDS011;5313;48.834;9.228;2024-02-26T08:26:09;5.50;;;3.00;;
10529;SDS011;5313;48.834;9.228;2024-02-26T08:28:36;7.23;;;3.27;;
10529;SDS011;5313;48.834;9.228;2024-02-26T08:31:03;5.83;;;3.07;;
10529;SDS011;5313;48.834;9.228;2024-02-26T08:33:28;4.90;;;3.17;;
10529;SDS011;5313;48.834;9.228;2024-02-26T08:35:54;3.83;;;2.90;;
10529;SDS011;5313;48.834;9.228;2024-02-26T08:38:20;4.37;;;2.80;;
10529;SDS011;5313;48.834;9.228;2024-02-26T08:40:45;3.87;;;2.30;;
10529;SDS011;5313;48.834;9.228;2024-02-26T08:43:11;2.93;;;2.10;;
10529;SDS011;5313;48.834;9.228;2024-02-26T08:45:36;3.80;;;2.40;;
10529;SDS011;5313;48.834;9.228;2024-02-26T08:48:02;3.87;;;2.40;;
10529;SDS011;5313;48.834;9.228;2024-02-26T08:50:28;3.20;;;2.40;;
10529;SDS011;5313;48.834;9.228;2024-02-26T08:52:53;4.33;;;2.80;;
10529;SDS011;5313;48.834;9.228;2024-02-26T08:55:19;4.03;;;2.93;;
10529;SDS011;5313;48.834;9.228;2024-02-26T08:57:44;4.40;;;2.90;;
10529;SDS011;5313;48.834;9.228;2024-02-26T09:00:10;3.40;;;2.60;;
10529;SDS011;5313;48.834;9.228;2024-02-26T09:02:36;5.30;;;2.90;;
10529;SDS011;5313;48.834;9.228;2024-02-26T09:05:03;3.53;;;2.50;;
10529;SDS011;5313;48.834;9.228;2024-02-26T09:07:30;2.50;;;2.23;;
10529;SDS011;5313;48.834;9.228;2024-02-26T09:09:56;4.77;;;2.40;;
10529;SDS011;5313;48.834;9.228;2024-02-26T09:12:21;3.97;;;2.53;;
10529;SDS011;5313;48.834;9.228;2024-02-26T09:14:47;3.60;;;2.40;;
10529;SDS011;5313;48.834;9.228;2024-02-26T09:17:13;4.00;;;2.50;;
10529;SDS011;5313;48.834;9.228;2024-02-26T09:19:38;2.90;;;1.90;;
10529;SDS011;5313;48.834;9.228;2024-02-26T09:22:04;5.20;;;2.27;;
10529;SDS011;5313;48.834;9.228;2024-02-26T09:24:29;3.70;;;2.30;;
10529;SDS011;5313;48.834;9.228;2024-02-26T09:26:55;3.73;;;2.20;;
10529;SDS011;5313;48.834;9.228;2024-02-26T09:29:21;3.53;;;2.40;;
10529;SDS011;5313;48.834;9.228;2024-02-26T09:31:46;4.77;;;2.37;;
10529;SDS011;5313;48.834;9.228;2024-02-26T09:34:12;3.57;;;2.57;;
10529;SDS011;5313;48.834;9.228;2024-02-26T09:36:38;2.63;;;2.20;;
10529;SDS011;5313;48.834;9.228;2024-02-26T09:39:04;3.37;;;2.20;;
10529;SDS011;5313;48.834;9.228;2024-02-26T09:41:30;3.30;;;2.47;;
10529;SDS011;5313;48.834;9.228;2024-02-26T09:43:56;3.47;;;2.30;;
10529;SDS011;5313;48.834;9.228;2024-02-26T09:46:23;4.03;;;2.53;;
10529;SDS011;5313;48.834;9.228;2024-02-26T09:48:50;4.03;;;2.20;;
10529;SDS011;5313;48.834;9.228;2024-02-26T09:51:16;2.67;;;2.33;;
10529;SDS011;5313;48.834;9.228;2024-02-26T09:53:43;3.43;;;2.80;;
10529;SDS011;5313;48.834;9.228;2024-02-26T09:56:10;3.57;;;2.43;;
10529;SDS011;5313;48.834;9.228;2024-02-26T09:58:36;3.20;;;2.57;;
10529;SDS011;5313;48.834;9.228;2024-02-26T10:01:03;5.53;;;3.17;;
10529;SDS011;5313;48.834;9.228;2024-02-26T10:03:38;4.43;;;2.93;;
10529;SDS011;5313;48.834;9.228;2024-02-26T10:06:06;5.63;;;3.00;;
10529;SDS011;5313;48.834;9.228;2024-02-26T10:08:33;5.93;;;2.53;;
10529;SDS011;5313;48.834;9.228;2024-02-26T10:11:00;4.83;;;2.60;;
10529;SDS011;5313;48.834;9.228;2024-02-26T10:13:26;4.63;;;2.67;;
10529;SDS011;5313;48.834;9.228;2024-02-26T10:15:51;3.13;;;2.70;;
10529;SDS011;5313;48.834;9.228;2024-02-26T10:18:17;5.60;;;2.50;;
10529;SDS011;5313;48.834;9.228;2024-02-26T10:20:45;5.20;;;4.00;;
10529;SDS011;5313;48.834;9.228;2024-02-26T10:23:27;3.97;;;2.67;;
10529;SDS011;5313;48.834;9.228;2024-02-26T10:25:56;3.43;;;2.37;;
10529;SDS011;5313;48.834;9.228;2024-02-26T10:28:22;2.50;;;1.93;;
10529;SDS011;5313;48.834;9.228;2024-02-26T10:30:48;3.43;;;1.97;;
10529;SDS011;5313;48.834;9.228;2024-02-26T10:33:13;3.77;;;1.90;;
10529;SDS011;5313;48.834;9.228;2024-02-26T10:35:46;1.93;;;1.60;;
10529;SDS011;5313;48.834;9.228;2024-02-26T10:38:12;3.23;;;1.60;;
10529;SDS011;5313;48.834;9.228;2024-02-26T10:40:38;2.47;;;1.77;;
10529;SDS011;5313;48.834;9.228;2024-02-26T10:43:04;4.27;;;1.50;;
10529;SDS011;5313;48.834;9.228;2024-02-26T10:45:29;2.17;;;1.50;;
10529;SDS011;5313;48.834;9.228;2024-02-26T10:47:56;2.13;;;1.73;;
10529;SDS011;5313;48.834;9.228;2024-02-26T10:50:22;4.80;;;1.50;;
10529;SDS011;5313;48.834;9.228;2024-02-26T10:52:47;3.47;;;1.43;;
10529;SDS011;5313;48.834;9.228;2024-02-26T10:55:15;1.43;;;1.30;;
10529;SDS011;5313;48.834;9.228;2024-02-26T10:57:44;2.10;;;1.30;;
10529;SDS011;5313;48.834;9.228;2024-02-26T11:00:10;2.33;;;1.57;;
10529;SDS011;5313;48.834;9.228;2024-02-26T11:02:39;1.80;;;1.27;;
10529;SDS011;5313;48.834;9.228;2024-02-26T11:05:06;1.70;;;1.23;;
10529;SDS011;5313;48.834;9.228;2024-02-26T11:07:33;2.20;;;1.30;;
10529;SDS011;5313;48.834;9.228;2024-02-26T11:10:00;2.30;;;1.27;;
10529;SDS011;5313;48.834;9.228;2024-02-26T11:12:31;2.27;;;1.47;;
10529;SDS011;5313;48.834;9.228;2024-02-26T11:14:58;1.80;;;1.40;;
10529;SDS011;5313;48.834;9.228;2024-02-26T11:17:25;1.53;;;1.30;;
10529;SDS011;5313;48.834;9.228;2024-02-26T11:19:55;2.00;;;1.40;;
10529;SDS011;5313;48.834;9.228;2024-02-26T11:22:22;4.57;;;1.77;;
10529;SDS011;5313;48.834;9.228;2024-02-26T11:24:52;3.77;;;1.30;;
10529;SDS011;5313;48.834;9.228;2024-02-26T11:27:19;2.03;;;1.60;;
10529;SDS011;5313;48.834;9.228;2024-02-26T11:29:50;2.30;;;1.43;;
10529;SDS011;5313;48.834;9.228;2024-02-26T11:32:18;3.33;;;1.50;;
10529;SDS011;5313;48.834;9.228;2024-02-26T11:34:44;2.63;;;1.30;;
10529;SDS011;5313;48.834;9.228;2024-02-26T11:37:13;1.27;;;0.90;;
10529;SDS011;5313;48.834;9.228;2024-02-26T11:39:40;2.00;;;1.50;;
10529;SDS011;5313;48.834;9.228;2024-02-26T11:42:06;1.47;;;1.33;;
10529;SDS011;5313;48.834;9.228;2024-02-26T11:44:33;2.20;;;1.50;;
10529;SDS011;5313;48.834;9.228;2024-02-26T11:46:59;1.93;;;1.63;;
10529;SDS011;5313;48.834;9.228;2024-02-26T11:49:34;3.50;;;1.50;;
10529;SDS011;5313;48.834;9.228;2024-02-26T11:52:00;1.43;;;1.23;;
10529;SDS011;5313;48.834;9.228;2024-02-26T11:54:50;1.57;;;1.10;;
10529;SDS011;5313;48.834;9.228;2024-02-26T11:57:24;2.27;;;1.53;;
10529;SDS011;5313;48.834;9.228;2024-02-26T12:00:15;4.13;;;1.43;;
10529;SDS011;5313;48.834;9.228;2024-02-26T12:02:49;3.30;;;1.50;;
10529;SDS011;5313;48.834;9.228;2024-02-26T12:05:22;3.43;;;1.30;;
10529;SDS011;5313;48.834;9.228;2024-02-26T12:07:54;1.90;;;1.37;;
10529;SDS011;5313;48.834;9.228;2024-02-26T12:10:47;1.73;;;1.20;;
10529;SDS011;5313;48.834;9.228;2024-02-26T12:13:14;2.30;;;1.30;;
10529;SDS011;5313;48.834;9.228;2024-02-26T12:15:43;2.93;;;1.40;;
10529;SDS011;5313;48.834;9.228;2024-02-26T12:18:19;2.60;;;1.40;;
10529;SDS011;5313;48.834;9.228;2024-02-26T12:20:46;1.80;;;1.57;;
10529;SDS011;5313;48.834;9.228;2024-02-26T12:23:15;1.87;;;1.47;;
10529;SDS011;5313;48.834;9.228;2024-02-26T12:25:44;1.70;;;1.20;;
10529;SDS011;5313;48.834;9.228;2024-02-26T12:28:13;3.40;;;1.50;;
10529;SDS011;5313;48.834;9.228;2024-02-26T12:30:39;1.70;;;1.17;;
10529;SDS011;5313;48.834;9.228;2024-02-26T12:33:04;2.57;;;1.20;;
10529;SDS011;5313;48.834;9.228;2024-02-26T12:35:31;3.10;;;1.50;;
10529;SDS011;5313;48.834;9.228;2024-02-26T12:37:57;1.73;;;1.40;;
10529;SDS011;5313;48.834;9.228;2024-02-26T12:40:23;4.57;;;1.20;;
10529;SDS011;5313;48.834;9.228;2024-02-26T12:42:49;1.70;;;1.30;;
10529;SDS011;5313;48.834;9.228;2024-02-26T12:45:15;1.97;;;1.33;;
10529;SDS011;5313;48.834;9.228;2024-02-26T12:47:42;1.60;;;1.30;;
10529;SDS011;5313;48.834;9.228;2024-02-26T12:50:09;1.80;;;1.40;;
10529;SDS011;5313;48.834;9.228;2024-02-26T12:52:36;1.90;;;1.17;;
10529;SDS011;5313;48.834;9.228;2024-02-26T12:55:06;5.07;;;1.60;;
10529;SDS011;5313;48.834;9.228;2024-02-26T12:57:36;2.53;;;1.20;;
10529;SDS011;5313;48.834;9.228;2024-02-26T13:00:03;6.40;;;1.20;;
10529;SDS011;5313;48.834;9.228;2024-02-26T13:02:31;2.27;;;1.20;;
10529;SDS011;5313;48.834;9.228;2024-02-26T13:04:59;1.70;;;1.40;;
10529;SDS011;5313;48.834;9.228;2024-02-26T13:07:26;2.07;;;1.20;;
10529;SDS011;5313;48.834;9.228;2024-02-26T13:09:52;2.87;;;1.67;;
10529;SDS011;5313;48.834;9.228;2024-02-26T13:12:18;2.07;;;1.53;;
10529;SDS011;5313;48.834;9.228;2024-02-26T13:14:44;2.60;;;1.30;;
10529;SDS011;5313;48.834;9.228;2024-02-26T13:17:09;1.53;;;1.27;;
10529;SDS011;5313;48.834;9.228;2024-02-26T13:19:35;2.33;;;1.47;;
10529;SDS011;5313;48.834;9.228;2024-02-26T13:22:04;2.07;;;1.20;;
10529;SDS011;5313;48.834;9.228;2024-02-26T13:24:31;2.03;;;1.50;;
10529;SDS011;5313;48.834;9.228;2024-02-26T13:27:00;2.53;;;1.37;;
10529;SDS011;5313;48.834;9.228;2024-02-26T13:29:28;2.63;;;1.23;;
10529;SDS011;5313;48.834;9.228;2024-02-26T13:31:54;3.57;;;1.40;;
10529;SDS011;5313;48.834;9.228;2024-02-26T13:34:26;3.33;;;1.73;;
10529;SDS011;5313;48.834;9.228;2024-02-26T13:36:53;2.33;;;1.50;;
10529;SDS011;5313;48.834;9.228;2024-02-26T13:39:23;1.83;;;1.33;;
10529;SDS011;5313;48.834;9.228;2024-02-26T13:41:50;2.57;;;1.20;;
10529;SDS011;5313;48.834;9.228;2024-02-26T13:44:16;1.90;;;1.17;;
10529;SDS011;5313;48.834;9.228;2024-02-26T13:46:41;1.97;;;1.20;;
10529;SDS011;5313;48.834;9.228;2024-02-26T13:49:08;1.30;;;1.10;;
10529;SDS011;5313;48.834;9.228;2024-02-26T13:51:35;4.00;;;1.40;;
10529;SDS011;5313;48.834;9.228;2024-02-26T13:54:02;2.07;;;0.83;;
10529;SDS011;5313;48.834;9.228;2024-02-26T13:56:28;2.33;;;1.00;;
10529;SDS011;5313;48.834;9.228;2024-02-26T13:58:54;0.80;;;0.80;;
10529;SDS011;5313;48.834;9.228;2024-02-26T14:01:20;1.10;;;1.00;;
10529;SDS011;5313;48.834;9.228;2024-02-26T14:03:45;2.17;;;0.70;;
10529;SDS011;5313;48.834;9.228;2024-02-26T14:06:11;1.00;;;0.80;;
10529;SDS011;5313;48.834;9.228;2024-02-26T14:08:36;1.17;;;0.93;;
10529;SDS011;5313;48.834;9.228;2024-02-26T14:11:02;0.83;;;0.80;;
10529;SDS011;5313;48.834;9.228;2024-02-26T14:13:28;0.80;;;0.53;;
10529;SDS011;5313;48.834;9.228;2024-02-26T14:15:53;1.50;;;0.70;;
10529;SDS011;5313;48.834;9.228;2024-02-26T14:18:19;0.77;;;0.77;;
10529;SDS011;5313;48.834;9.228;2024-02-26T14:20:44;1.13;;;0.80;;
10529;SDS011;5313;48.834;9.228;2024-02-26T14:23:10;1.20;;;0.70;;
10529;SDS011;5313;48.834;9.228;2024-02-26T14:25:35;1.33;;;0.83;;
10529;SDS011;5313;48.834;9.228;2024-02-26T14:28:01;1.23;;;0.60;;
10529;SDS011;5313;48.834;9.228;2024-02-26T14:30:27;0.60;;;0.60;;
10529;SDS011;5313;48.834;9.228;2024-02-26T14:32:53;2.93;;;0.60;;
10529;SDS011;5313;48.834;9.228;2024-02-26T14:35:19;0.83;;;0.60;;
10529;SDS011;5313;48.834;9.228;2024-02-26T14:37:44;1.20;;;0.90;;
10529;SDS011;5313;48.834;9.228;2024-02-26T14:40:15;1.57;;;0.83;;
10529;SDS011;5313;48.834;9.228;2024-02-26T14:42:41;0.63;;;0.43;;
10529;SDS011;5313;48.834;9.228;2024-02-26T14:45:07;1.30;;;0.60;;
10529;SDS011;5313;48.834;9.228;2024-02-26T14:47:37;0.50;;;0.50;;
10529;SDS011;5313;48.834;9.228;2024-02-26T14:50:03;1.83;;;0.53;;
10529;SDS011;5313;48.834;9.228;2024-02-26T14:52:29;2.43;;;0.60;;
10529;SDS011;5313;48.834;9.228;2024-02-26T14:54:56;1.50;;;0.80;;
10529;SDS011;5313;48.834;9.228;2024-02-26T14:57:22;0.90;;;0.63;;